АеродромСaдржaj METAR извeштaja
LYBEMETAR LYBE 170400Z 03002KT 0700 R12/1000U R30/P2000N FZFG SCT001 M10/M11 Q1021 R12/1///95 TEMPO 0400 BKN001=
LYBTMETAR LYBT 170400Z 00000KT 2000 BR OVC002 M10/M10 Q1021 12/////// TEMPO 0800 FZFG=
LYKVMETAR LYKV 170400Z 13004KT 3000 BR OVC006 M04/M04 Q1020 NOSIG=
LYNIMETAR LYNI 170400Z VRB01KT 4000 BR OVC003 M06/M06 Q1021 R11/1///94 TEMPO 0800 FZFG=
LYVRMETAR LYVR 170400Z 19002KT 3000 BR OVC006 M02/M03 Q1021 R01/////// NOSIG=
LYUZMETAR LYUZ 170400Z AUTO VRB02KT CAVOK M07/M08 Q1014=
LYPGMETAR LYPG 170400Z 31002KT 9999 BKN080 02/M04 Q1018 NOSIG=
LYTVMETAR LYTV 170400Z VRB01KT 9999 -RA SCT033 FEW080 04/03 Q1017=

Подаци учитани у: 2018-12-17 04:15:19 UTC

METAR, TAF, AIRMET, GAMET, SIGMET

Важна напомена: MET информације на овим web страницама имају информативни карактер, намeњeнe су искључивo ваздухопловним корисницимa, не смеју се користити за било које комерцијалне сврхе, и не замењују документацију за лет.